createdAt,value
2018-11-10T00:01:45.912Z,58.50
2018-11-10T00:04:14.187Z,55.33
2018-11-10T00:06:42.404Z,60.87
2018-11-10T00:09:10.612Z,61.20
2018-11-10T00:11:38.942Z,61.93
2018-11-10T00:14:07.141Z,59.50
2018-11-10T00:16:35.660Z,61.90
2018-11-10T00:19:03.958Z,62.63
2018-11-10T00:21:32.443Z,65.70
2018-11-10T00:24:00.669Z,62.90
2018-11-10T00:26:28.992Z,63.67
2018-11-10T00:28:57.472Z,60.83
2018-11-10T00:31:26.091Z,64.87
2018-11-10T00:33:54.286Z,61.83
2018-11-10T00:36:22.535Z,59.57
2018-11-10T00:38:50.983Z,66.17
2018-11-10T00:41:19.264Z,63.40
2018-11-10T00:43:47.478Z,63.57
2018-11-10T00:46:15.688Z,57.80
2018-11-10T00:48:43.892Z,62.00
2018-11-10T00:51:12.091Z,62.40
2018-11-10T00:53:40.278Z,62.37
2018-11-10T00:56:08.483Z,63.30
2018-11-10T00:58:36.687Z,65.77
2018-11-10T01:01:04.959Z,64.57
2018-11-10T01:03:33.172Z,69.80
2018-11-10T01:06:01.366Z,63.20
2018-11-10T01:08:29.576Z,67.57
2018-11-10T01:10:57.769Z,65.77
2018-11-10T01:13:25.968Z,61.80
2018-11-10T01:15:54.187Z,65.47
2018-11-10T01:18:22.383Z,67.40
2018-11-10T01:20:50.584Z,66.40
2018-11-10T01:23:18.788Z,69.50
2018-11-10T01:25:46.999Z,66.10
2018-11-10T01:28:15.261Z,68.37
2018-11-10T01:30:43.459Z,75.00
2018-11-10T01:33:11.673Z,66.70
2018-11-10T01:35:39.890Z,63.47
2018-11-10T01:38:08.100Z,72.57
2018-11-10T01:40:36.313Z,65.77
2018-11-10T01:43:04.564Z,72.20
2018-11-10T01:45:32.773Z,69.40
2018-11-10T01:48:00.984Z,64.67
2018-11-10T01:50:29.206Z,67.27
2018-11-10T01:52:57.411Z,62.73
2018-11-10T01:55:25.631Z,67.23
2018-11-10T01:57:53.842Z,64.80
2018-11-10T02:00:22.068Z,70.87
2018-11-10T02:02:50.268Z,61.33
2018-11-10T02:05:18.642Z,62.00
2018-11-10T02:07:46.936Z,63.37
2018-11-10T02:10:15.152Z,58.97
2018-11-10T02:12:43.575Z,60.27
2018-11-10T02:15:14.662Z,65.80
2018-11-10T02:17:42.875Z,65.20
2018-11-10T02:20:12.404Z,57.90
2018-11-10T02:22:40.800Z,61.70
2018-11-10T02:25:10.193Z,60.43
2018-11-10T02:27:38.438Z,61.43
2018-11-10T02:30:08.189Z,58.63
2018-11-10T02:32:36.505Z,54.97
2018-11-10T02:35:06.052Z,56.30
2018-11-10T02:37:34.275Z,60.67
2018-11-10T02:40:02.504Z,62.23
2018-11-10T02:42:30.697Z,61.87
2018-11-10T02:44:58.928Z,59.00
2018-11-10T02:47:27.144Z,61.70
2018-11-10T02:49:55.368Z,68.67
2018-11-10T02:52:23.608Z,64.13
2018-11-10T02:54:51.835Z,60.07
2018-11-10T02:57:20.075Z,61.77
2018-11-10T02:59:48.316Z,64.77
2018-11-10T03:02:16.688Z,62.03
2018-11-10T03:04:44.989Z,68.37
2018-11-10T03:07:13.243Z,64.17
2018-11-10T03:09:41.524Z,63.63
2018-11-10T03:12:09.764Z,60.67
2018-11-10T03:14:37.991Z,59.03
2018-11-10T03:17:06.223Z,62.67
2018-11-10T03:19:34.448Z,55.07
2018-11-10T03:22:02.719Z,59.80
2018-11-10T03:24:31.012Z,63.43
2018-11-10T03:26:59.485Z,59.77
2018-11-10T03:29:27.722Z,59.77
2018-11-10T03:31:55.980Z,62.17
2018-11-10T03:34:24.316Z,66.37
2018-11-10T03:36:52.675Z,61.57
2018-11-10T03:39:20.925Z,61.20
2018-11-10T03:41:49.231Z,61.33
2018-11-10T03:44:17.418Z,62.43
2018-11-10T03:46:45.614Z,65.23
2018-11-10T03:49:13.810Z,61.40
2018-11-10T03:51:42.002Z,63.77
2018-11-10T03:54:10.243Z,58.63
2018-11-10T03:56:38.418Z,63.80
2018-11-10T03:59:06.865Z,65.73
2018-11-10T04:01:35.532Z,68.03
2018-11-10T04:04:03.710Z,64.47
2018-11-10T04:06:31.930Z,71.87
2018-11-10T04:09:00.181Z,59.33
2018-11-10T04:11:28.370Z,62.67
2018-11-10T04:13:56.551Z,58.90
2018-11-10T04:16:24.750Z,59.63
2018-11-10T04:18:52.941Z,63.33
2018-11-10T04:21:21.123Z,57.63
2018-11-10T04:23:49.327Z,57.30
2018-11-10T04:26:17.513Z,58.67
2018-11-10T04:28:45.721Z,61.73
2018-11-10T04:31:13.906Z,55.57
2018-11-10T04:33:42.130Z,55.87
2018-11-10T04:36:10.485Z,57.73
2018-11-10T04:38:38.684Z,58.77
2018-11-10T04:41:07.173Z,59.53
2018-11-10T04:43:35.374Z,56.00
2018-11-10T04:46:03.566Z,57.13
2018-11-10T04:48:31.789Z,61.27
2018-11-10T04:50:59.967Z,57.20
2018-11-10T04:53:28.218Z,61.07
2018-11-10T04:55:56.432Z,61.50
2018-11-10T04:58:24.606Z,60.20
2018-11-10T05:00:52.813Z,53.83
2018-11-10T05:03:21.021Z,54.70
2018-11-10T05:05:49.219Z,56.70
2018-11-10T05:08:17.416Z,55.03
2018-11-10T05:10:45.602Z,53.10
2018-11-10T05:13:13.802Z,58.30
2018-11-10T05:15:42.106Z,53.30
2018-11-10T05:18:10.247Z,58.63
2018-11-10T05:20:38.442Z,52.03
2018-11-10T05:23:06.622Z,53.57
2018-11-10T05:25:34.810Z,57.70
2018-11-10T05:28:03.092Z,55.43
2018-11-10T05:30:31.318Z,54.47
2018-11-10T05:32:59.524Z,52.97
2018-11-10T05:35:27.740Z,54.77
2018-11-10T05:37:55.917Z,51.73
2018-11-10T05:40:24.230Z,50.30
2018-11-10T05:42:52.466Z,53.77
2018-11-10T05:45:20.701Z,53.50
2018-11-10T05:47:48.997Z,51.47
2018-11-10T05:50:17.269Z,55.10
2018-11-10T05:52:46.204Z,53.27
2018-11-10T05:55:14.592Z,59.27
2018-11-10T05:57:42.856Z,53.77
2018-11-10T06:00:12.385Z,56.00
2018-11-10T06:02:41.934Z,56.03
2018-11-10T06:05:11.694Z,56.47
2018-11-10T06:07:40.825Z,56.40
2018-11-10T06:10:11.196Z,53.57
2018-11-10T06:12:39.294Z,56.57
2018-11-10T06:15:09.287Z,59.00
2018-11-10T06:17:38.649Z,58.13
2018-11-10T06:20:10.573Z,57.40
2018-11-10T06:22:38.944Z,57.13
2018-11-10T06:25:07.875Z,59.67
2018-11-10T06:27:36.112Z,61.13
2018-11-10T06:30:05.483Z,58.93
2018-11-10T06:32:33.759Z,61.40
2018-11-10T06:35:01.866Z,59.17
2018-11-10T06:37:30.060Z,67.17
2018-11-10T06:39:58.256Z,57.77
2018-11-10T06:42:26.509Z,59.50
2018-11-10T06:44:54.821Z,63.47
2018-11-10T06:47:23.014Z,63.30
2018-11-10T06:49:51.262Z,66.10
2018-11-10T06:52:19.441Z,56.50
2018-11-10T06:54:47.642Z,60.60
2018-11-10T06:57:15.836Z,58.23
2018-11-10T06:59:44.074Z,63.47
2018-11-10T07:02:12.268Z,63.33
2018-11-10T07:04:40.458Z,64.40
2018-11-10T07:07:08.650Z,63.87
2018-11-10T07:09:36.851Z,57.43
2018-11-10T07:12:05.501Z,60.57
2018-11-10T07:14:33.711Z,61.80
2018-11-10T07:17:01.887Z,62.07
2018-11-10T07:19:30.095Z,62.20
2018-11-10T07:21:58.295Z,61.80
2018-11-10T07:24:26.482Z,60.97
2018-11-10T07:26:54.694Z,65.97
2018-11-10T07:29:22.889Z,66.93
2018-11-10T07:31:51.103Z,60.73
2018-11-10T07:34:19.322Z,61.30
2018-11-10T07:36:47.526Z,62.90
2018-11-10T07:39:20.722Z,64.17
2018-11-10T07:41:49.190Z,61.33
2018-11-10T07:44:17.374Z,62.43
2018-11-10T07:46:45.615Z,57.30
2018-11-10T07:49:13.870Z,64.73
2018-11-10T07:51:42.117Z,60.10
2018-11-10T07:54:10.310Z,57.77
2018-11-10T07:56:38.494Z,61.73
2018-11-10T07:59:07.009Z,60.53
2018-11-10T08:01:35.210Z,62.80
2018-11-10T08:04:05.192Z,60.40
2018-11-10T08:06:33.573Z,60.93
2018-11-10T08:09:02.987Z,60.80
2018-11-10T08:11:31.171Z,64.07
2018-11-10T08:13:59.558Z,61.60
2018-11-10T08:16:27.755Z,63.33
2018-11-10T08:18:55.947Z,60.93
2018-11-10T08:21:24.154Z,60.73
2018-11-10T08:23:52.363Z,62.20
2018-11-10T08:26:20.547Z,60.47
2018-11-10T08:28:49.690Z,61.03
2018-11-10T08:31:18.103Z,65.13
2018-11-10T08:33:46.262Z,60.57
2018-11-10T08:36:14.564Z,55.27
2018-11-10T08:38:42.693Z,62.37
2018-11-10T08:41:10.878Z,62.27
2018-11-10T08:43:39.387Z,58.23
2018-11-10T08:46:07.564Z,55.03
2018-11-10T08:48:37.841Z,55.50
2018-11-10T08:51:06.796Z,61.80
2018-11-10T08:53:35.622Z,59.57
2018-11-10T08:56:04.877Z,59.60
2018-11-10T08:58:33.309Z,52.67
2018-11-10T09:01:02.144Z,59.00
2018-11-10T09:03:31.719Z,60.47
2018-11-10T09:06:01.027Z,57.57
2018-11-10T09:08:31.560Z,56.57
2018-11-10T09:11:00.669Z,65.53
2018-11-10T09:13:28.877Z,54.90
2018-11-10T09:15:57.977Z,58.77
2018-11-10T09:18:27.194Z,56.10
2018-11-10T09:20:55.505Z,59.93
2018-11-10T09:23:25.367Z,53.80
2018-11-10T09:25:54.764Z,55.83
2018-11-10T09:28:23.022Z,55.83
2018-11-10T09:30:51.266Z,55.53
2018-11-10T09:33:19.410Z,53.80
2018-11-10T09:35:47.683Z,55.37
2018-11-10T09:38:15.867Z,55.17
2018-11-10T09:40:44.242Z,54.70
2018-11-10T09:43:12.446Z,53.43
2018-11-10T09:45:41.287Z,54.10
2018-11-10T09:48:09.486Z,52.57
2018-11-10T09:50:37.704Z,54.50
2018-11-10T09:53:05.972Z,56.20
2018-11-10T09:55:34.266Z,51.20
2018-11-10T09:58:02.474Z,48.57
2018-11-10T10:00:30.898Z,48.53
2018-11-10T10:02:59.149Z,51.90
2018-11-10T10:05:27.403Z,49.80
2018-11-10T10:07:55.648Z,47.03
2018-11-10T10:10:23.854Z,50.63
2018-11-10T10:13:55.254Z,55.17
2018-11-10T10:16:23.610Z,50.03
2018-11-10T10:18:52.694Z,49.83
2018-11-10T10:21:22.404Z,49.17
2018-11-10T10:23:50.895Z,52.67
2018-11-10T10:26:19.150Z,50.27
2018-11-10T10:28:47.565Z,46.10
2018-11-10T10:31:15.882Z,50.70
2018-11-10T10:33:44.135Z,48.00
2018-11-10T10:36:12.375Z,49.43
2018-11-10T10:38:40.579Z,46.90
2018-11-10T10:41:09.206Z,48.20
2018-11-10T10:43:37.422Z,48.77
2018-11-10T10:46:05.736Z,47.43
2018-11-10T10:48:34.017Z,46.83
2018-11-10T10:51:02.146Z,51.10
2018-11-10T10:53:30.365Z,45.80
2018-11-10T10:55:58.656Z,50.00
2018-11-10T10:58:26.857Z,48.70
2018-11-10T11:01:00.301Z,49.47
2018-11-10T11:03:33.975Z,46.10
2018-11-10T11:06:02.717Z,44.37
2018-11-10T11:08:31.191Z,45.60
2018-11-10T11:10:59.737Z,44.07
2018-11-10T11:13:28.138Z,49.90
2018-11-10T11:15:56.334Z,44.00
2018-11-10T11:18:24.550Z,44.70
2018-11-10T11:20:52.747Z,48.17
2018-11-10T11:23:20.941Z,53.60
2018-11-10T11:25:49.147Z,51.23
2018-11-10T11:28:17.379Z,52.63
2018-11-10T11:30:45.602Z,47.07
2018-11-10T11:33:14.087Z,46.00
2018-11-10T11:35:42.295Z,49.30
2018-11-10T11:38:10.495Z,47.17
2018-11-10T11:40:38.715Z,51.03
2018-11-10T11:43:06.918Z,47.33
2018-11-10T11:45:35.114Z,49.37
2018-11-10T11:48:03.301Z,50.67
2018-11-10T11:50:31.544Z,47.03
2018-11-10T11:52:59.738Z,49.57
2018-11-10T11:55:27.955Z,45.37
2018-11-10T11:57:56.249Z,50.33
2018-11-10T12:00:24.367Z,45.13
2018-11-10T12:02:52.566Z,47.90
2018-11-10T12:05:20.775Z,47.13
2018-11-10T12:07:48.971Z,47.80
2018-11-10T12:10:17.633Z,46.13
2018-11-10T12:12:46.039Z,44.63
2018-11-10T12:15:15.516Z,40.57
2018-11-10T12:17:43.662Z,43.67
2018-11-10T12:20:13.118Z,41.83
2018-11-10T12:22:41.599Z,41.67
2018-11-10T12:25:10.903Z,41.70
2018-11-10T12:27:39.510Z,45.27
2018-11-10T12:30:08.788Z,44.37
2018-11-10T12:32:37.003Z,43.07
2018-11-10T12:35:06.232Z,46.80
2018-11-10T12:37:34.559Z,46.97
2018-11-10T12:40:02.783Z,45.47
2018-11-10T12:42:31.007Z,46.53
2018-11-10T12:44:59.202Z,42.80
2018-11-10T12:47:27.465Z,43.37
2018-11-10T12:49:55.587Z,44.43
2018-11-10T12:52:23.792Z,47.33
2018-11-10T12:54:52.001Z,48.97
2018-11-10T12:57:20.329Z,52.00
2018-11-10T12:59:48.494Z,46.60
2018-11-10T13:02:16.730Z,46.13
2018-11-10T13:04:44.911Z,50.77
2018-11-10T13:07:13.300Z,49.30
2018-11-10T13:09:41.383Z,47.73
2018-11-10T13:12:09.661Z,48.80
2018-11-10T13:14:38.167Z,49.37
2018-11-10T13:17:06.623Z,50.93
2018-11-10T13:19:34.811Z,50.27
2018-11-10T13:22:03.080Z,51.50
2018-11-10T13:24:31.344Z,50.33
2018-11-10T13:32:11.487Z,52.83
2018-11-10T13:34:39.813Z,52.57
2018-11-10T13:37:08.234Z,55.37
2018-11-10T13:39:36.474Z,53.47
2018-11-10T13:42:05.126Z,49.17
2018-11-10T13:44:33.493Z,57.93
2018-11-10T13:47:01.707Z,52.23
2018-11-10T13:49:29.903Z,53.33
2018-11-10T13:51:58.343Z,54.67
2018-11-10T13:54:26.443Z,55.37
2018-11-10T13:56:54.639Z,56.17
2018-11-10T13:59:22.924Z,71.17
2018-11-10T14:01:51.239Z,57.73
2018-11-10T14:04:20.089Z,53.50
2018-11-10T14:06:48.914Z,51.90
2018-11-10T14:09:17.307Z,53.20
2018-11-10T14:11:46.088Z,54.87
2018-11-10T14:14:14.392Z,55.63
2018-11-10T14:16:43.042Z,55.37
2018-11-10T14:19:11.388Z,57.80
2018-11-10T14:21:40.303Z,63.43
2018-11-10T14:24:09.575Z,67.67
2018-11-10T14:26:37.864Z,57.23
2018-11-10T14:29:06.891Z,58.97
2018-11-10T14:31:36.870Z,61.70
2018-11-10T14:34:05.449Z,61.60
2018-11-10T14:36:33.662Z,56.63
2018-11-10T14:39:02.003Z,52.50
2018-11-10T14:41:30.216Z,58.97
2018-11-10T14:43:58.441Z,60.40
2018-11-10T14:46:27.120Z,53.90
2018-11-10T14:48:55.498Z,59.67
2018-11-10T14:51:23.751Z,56.93
2018-11-10T14:53:51.995Z,57.97
2018-11-10T14:56:20.344Z,57.60
2018-11-10T14:58:48.986Z,58.83
2018-11-10T15:01:17.266Z,64.97
2018-11-10T15:03:45.507Z,57.00
2018-11-10T15:06:13.831Z,55.10
2018-11-10T15:08:42.124Z,53.67
2018-11-10T15:11:10.450Z,61.70
2018-11-10T15:13:38.802Z,54.20
2018-11-10T15:16:07.410Z,56.87
2018-11-10T15:18:35.691Z,57.47
2018-11-10T15:21:04.355Z,60.60
2018-11-10T15:23:32.615Z,60.17
2018-11-10T15:26:00.930Z,58.70
2018-11-10T15:28:29.390Z,60.37
2018-11-10T15:30:57.660Z,60.73
2018-11-10T15:33:26.059Z,59.67
2018-11-10T15:35:54.292Z,58.97
2018-11-10T15:38:22.709Z,54.17
2018-11-10T15:40:51.167Z,74.33
2018-11-10T15:43:19.466Z,57.93
2018-11-10T15:45:47.952Z,60.67
2018-11-10T15:48:16.259Z,63.03
2018-11-10T15:51:47.965Z,60.63
2018-11-10T15:54:16.332Z,58.57
2018-11-10T15:56:44.607Z,59.67
2018-11-10T15:59:12.891Z,64.07
2018-11-10T16:01:41.114Z,63.33
2018-11-10T16:04:09.316Z,65.43
2018-11-10T16:06:37.516Z,61.37
2018-11-10T16:09:08.757Z,63.97
2018-11-10T16:11:36.926Z,58.60
2018-11-10T16:14:05.210Z,74.15
2018-11-10T16:16:33.538Z,100.53
2018-11-10T16:19:01.751Z,129.67
2018-11-10T16:21:29.979Z,98.37
2018-11-10T16:23:58.250Z,105.17
2018-11-10T16:26:26.482Z,88.90
2018-11-10T16:28:54.926Z,69.67
2018-11-10T16:31:23.187Z,66.03
2018-11-10T16:33:51.388Z,68.03
2018-11-10T16:36:19.828Z,74.90
2018-11-10T16:38:48.019Z,90.17
2018-11-10T16:41:17.116Z,91.30
2018-11-10T16:43:45.662Z,76.53
2018-11-10T16:46:15.151Z,74.03
2018-11-10T16:48:44.424Z,72.70
2018-11-10T16:51:13.497Z,72.17
2018-11-10T16:53:41.944Z,75.93
2018-11-10T17:03:15.771Z,66.53
2018-11-10T17:05:43.961Z,66.57
2018-11-10T17:08:12.187Z,63.93
2018-11-10T17:10:40.483Z,65.73
2018-11-10T17:13:08.680Z,72.07
2018-11-10T17:15:37.012Z,70.73
2018-11-10T17:18:05.154Z,71.93
2018-11-10T17:20:33.372Z,63.93
2018-11-10T17:23:01.592Z,62.93
2018-11-10T17:25:29.818Z,64.87
2018-11-10T17:27:58.330Z,65.07
2018-11-10T17:30:26.637Z,123.80
2018-11-10T17:32:54.913Z,77.13
2018-11-10T17:35:23.120Z,88.27
2018-11-10T17:37:51.581Z,70.37
2018-11-10T17:40:19.873Z,69.30
2018-11-10T17:42:51.813Z,68.50
2018-11-10T17:45:20.598Z,63.93
2018-11-10T17:47:48.799Z,64.73
2018-11-10T17:50:17.834Z,63.13
2018-11-10T17:52:46.166Z,70.30
2018-11-10T17:55:15.427Z,67.40
2018-11-10T17:57:43.997Z,65.57
2018-11-10T18:00:12.394Z,66.67
2018-11-10T18:02:40.701Z,66.43
2018-11-10T18:05:10.779Z,66.93
2018-11-10T18:07:41.165Z,68.13
2018-11-10T18:10:11.187Z,73.03
2018-11-10T18:12:39.389Z,69.27
2018-11-10T18:15:08.762Z,69.10
2018-11-10T18:17:37.173Z,61.87
2018-11-10T18:20:05.830Z,69.83
2018-11-10T18:22:34.075Z,65.50
2018-11-10T18:25:02.286Z,65.60
2018-11-10T18:27:30.462Z,72.67
2018-11-10T18:29:58.667Z,74.27
2018-11-10T18:32:26.965Z,64.80
2018-11-10T18:34:55.150Z,69.23
2018-11-10T18:37:23.328Z,70.40
2018-11-10T18:39:51.565Z,65.50
2018-11-10T18:42:19.909Z,74.47
2018-11-10T18:44:48.146Z,90.73
2018-11-10T18:47:16.330Z,109.83
2018-11-10T18:49:44.698Z,113.00
2018-11-10T18:52:12.956Z,98.47
2018-11-10T18:54:41.110Z,85.70
2018-11-10T18:57:09.416Z,76.83
2018-11-10T18:59:37.610Z,70.43
2018-11-10T19:02:05.998Z,74.20
2018-11-10T19:04:34.246Z,69.47
2018-11-10T19:07:02.450Z,69.77
2018-11-10T19:09:30.653Z,66.27
2018-11-10T19:11:58.852Z,80.10
2018-11-10T19:14:27.175Z,74.03
2018-11-10T19:16:55.386Z,62.93
2018-11-10T19:19:23.608Z,64.07
2018-11-10T19:21:51.803Z,64.93
2018-11-10T19:24:20.192Z,65.60
2018-11-10T19:31:38.506Z,56.60
2018-11-10T19:34:06.684Z,64.40
2018-11-10T19:36:34.899Z,57.20
2018-11-10T19:39:03.233Z,68.20
2018-11-10T19:41:31.428Z,56.13
2018-11-10T19:43:59.785Z,52.57
2018-11-10T19:46:28.614Z,58.90
2018-11-10T19:58:04.386Z,58.93
2018-11-10T20:00:32.721Z,50.87
2018-11-10T20:03:01.496Z,58.10
2018-11-10T20:05:29.706Z,52.87
2018-11-10T20:07:58.600Z,56.80
2018-11-10T20:10:26.794Z,51.53
2018-11-10T20:12:55.058Z,53.27
2018-11-10T20:15:23.272Z,56.53
2018-11-10T20:17:51.522Z,49.63
2018-11-10T20:20:19.942Z,58.23
2018-11-10T20:22:48.175Z,55.90
2018-11-10T20:25:17.726Z,55.33
2018-11-10T20:27:45.963Z,55.37
2018-11-10T20:30:16.634Z,57.17
2018-11-10T20:32:45.188Z,52.90
2018-11-10T20:35:13.820Z,56.17
2018-11-10T20:37:42.787Z,58.77
2018-11-10T20:40:11.986Z,58.50
2018-11-10T20:42:40.364Z,54.70
2018-11-10T20:52:08.850Z,58.40
2018-11-10T20:54:37.030Z,57.83
2018-11-10T20:57:05.531Z,53.53
2018-11-10T20:59:33.705Z,57.80
2018-11-10T21:02:01.903Z,56.43
2018-11-10T21:04:30.192Z,51.73
2018-11-10T21:06:58.888Z,66.20
2018-11-10T21:09:27.431Z,64.30
2018-11-10T21:11:55.612Z,60.07
2018-11-10T21:14:23.815Z,61.67
2018-11-10T21:16:52.262Z,60.50
2018-11-10T21:19:21.887Z,59.33
2018-11-10T21:21:50.093Z,61.87
2018-11-10T21:24:18.274Z,57.30
2018-11-10T21:26:46.500Z,55.17
2018-11-10T21:29:16.822Z,53.00
2018-11-10T21:31:44.987Z,52.20
2018-11-10T21:34:13.321Z,53.60
2018-11-10T21:36:43.019Z,61.30
2018-11-10T21:39:13.205Z,59.67
2018-11-10T21:41:41.770Z,54.47
2018-11-10T21:44:10.864Z,55.60
2018-11-10T21:46:39.553Z,54.83
2018-11-10T21:49:08.850Z,52.10
2018-11-10T21:51:39.738Z,57.67
2018-11-10T21:54:07.935Z,53.77
2018-11-10T21:56:36.142Z,58.13
2018-11-10T21:59:04.351Z,55.43
2018-11-10T22:01:32.539Z,53.87
2018-11-10T22:04:00.746Z,55.17
2018-11-10T22:06:28.963Z,53.43
2018-11-10T22:08:57.272Z,52.50
2018-11-10T22:11:25.989Z,57.23
2018-11-10T22:13:59.644Z,52.67
2018-11-10T22:16:27.863Z,56.20
2018-11-10T22:18:56.049Z,50.07
2018-11-10T22:21:24.238Z,58.10
2018-11-10T22:23:52.443Z,50.53
2018-11-10T22:26:20.707Z,50.37
2018-11-10T22:28:48.950Z,59.40
2018-11-10T22:31:17.136Z,57.67
2018-11-10T22:33:45.338Z,57.00
2018-11-10T22:36:13.534Z,51.83
2018-11-10T22:38:41.755Z,51.87
2018-11-10T22:41:09.970Z,56.40
2018-11-10T22:43:38.175Z,52.93
2018-11-10T22:46:06.820Z,52.70
2018-11-10T22:51:16.101Z,54.83
2018-11-10T22:53:44.307Z,50.33
2018-11-10T22:56:12.597Z,56.77
2018-11-10T22:58:40.795Z,52.07
2018-11-10T23:01:10.042Z,51.97
2018-11-10T23:03:39.316Z,53.40
2018-11-10T23:06:08.542Z,57.90
2018-11-10T23:08:36.824Z,51.57
2018-11-10T23:11:05.290Z,53.47
2018-11-10T23:13:33.786Z,52.03
2018-11-10T23:16:01.988Z,54.70
2018-11-10T23:18:30.173Z,54.67
2018-11-10T23:20:58.399Z,52.13
2018-11-10T23:23:26.649Z,50.30
2018-11-10T23:25:54.804Z,55.63
2018-11-10T23:28:22.994Z,55.00
2018-11-10T23:30:51.186Z,55.47
2018-11-10T23:33:19.390Z,58.63
2018-11-10T23:35:47.578Z,59.83
2018-11-10T23:38:15.840Z,59.57
2018-11-10T23:40:44.038Z,53.33
2018-11-10T23:43:12.241Z,59.43
2018-11-10T23:45:40.438Z,56.77
2018-11-10T23:48:08.627Z,60.60
2018-11-10T23:50:36.833Z,59.67
2018-11-10T23:53:05.556Z,62.27
2018-11-10T23:55:33.784Z,56.73
2018-11-10T23:58:01.963Z,58.93
